Time;durP1;ratioP1;P1;durP2;ratioP2;P2;SDS_P1;SDS_P2;PMS_P1;PMS_P2;Temp;Humidity;BMP_temperature;BMP_pressure;BME280_temperature;BME280_humidity;BME280_pressure;Samples;Min_cycle;Max_cycle;Signal;HPM_P1;HPM_P2
2022/11/19 00:01:10;;;;;;;87.13;39.97;;;-0.70;99.90;;;;;;4987202;28;20045;-76
2022/11/19 00:03:38;;;;;;;106.35;46.95;;;-0.70;99.90;;;;;;4964602;28;20444;-76
2022/11/19 00:06:07;;;;;;;113.10;49.58;;;-0.80;99.90;;;;;;4965926;28;20053;-76
2022/11/19 00:08:34;;;;;;;116.22;50.22;;;-0.80;99.90;;;;;;4994324;28;20050;-76
2022/11/19 00:11:10;;;;;;;108.13;48.45;;;-0.80;99.90;;;;;;4961960;28;20068;-76
2022/11/19 00:13:41;;;;;;;99.38;44.40;;;-0.90;99.90;;;;;;4947865;28;20068;-76
2022/11/19 00:16:12;;;;;;;108.53;49.42;;;-0.90;99.90;;;;;;4973270;28;20078;-76
2022/11/19 00:18:40;;;;;;;103.72;47.80;;;-0.90;99.90;;;;;;4974589;28;20070;-76
2022/11/19 00:21:10;;;;;;;102.43;42.65;;;-0.80;99.90;;;;;;4978558;28;20047;-76
2022/11/19 00:23:38;;;;;;;103.95;46.83;;;-0.80;99.90;;;;;;4967524;28;20046;-76
2022/11/19 00:26:13;;;;;;;109.65;47.78;;;-0.90;99.90;;;;;;4986288;28;20034;-76
2022/11/19 00:28:40;;;;;;;;;;;-1.00;99.90;;;;;;4972279;28;20046;-76
2022/11/19 00:31:12;;;;;;;99.45;44.03;;;-1.00;99.90;;;;;;4990519;28;19928;-76
2022/11/19 00:33:40;;;;;;;106.85;44.80;;;-1.00;99.90;;;;;;4975047;28;20045;-76
2022/11/19 00:36:09;;;;;;;102.32;44.88;;;-1.00;99.90;;;;;;4984134;28;20042;-75
2022/11/19 00:38:36;;;;;;;105.05;48.55;;;-1.00;99.90;;;;;;4978955;28;20046;-75
2022/11/19 00:41:03;;;;;;;108.18;46.42;;;-1.00;99.90;;;;;;4975955;28;20046;-76
2022/11/19 00:43:45;;;;;;;116.55;48.38;;;-0.90;99.90;;;;;;4971968;28;20065;-77
2022/11/19 00:46:27;;;;;;;89.10;38.00;;;-0.90;99.90;;;;;;4967780;28;20042;-76
2022/11/19 00:48:56;;;;;;;107.55;44.63;;;-1.00;99.90;;;;;;4981575;28;20061;-76
2022/11/19 00:51:25;;;;;;;97.28;39.35;;;-1.10;99.90;;;;;;4962826;28;20039;-76
2022/11/19 00:53:53;;;;;;;96.90;41.60;;;-1.10;99.90;;;;;;4970145;28;20424;-75
2022/11/19 00:56:22;;;;;;;105.60;46.72;;;-1.00;99.90;;;;;;4968658;28;20038;-76
2022/11/19 00:58:49;;;;;;;103.55;44.42;;;-1.10;99.90;;;;;;4978160;28;20041;-76
2022/11/19 01:01:17;;;;;;;110.45;43.90;;;-1.10;99.90;;;;;;4965411;28;20096;-75
2022/11/19 01:03:44;;;;;;;102.40;45.63;;;-1.00;99.90;;;;;;4966684;28;20456;-75
2022/11/19 01:06:12;;;;;;;105.63;47.05;;;-1.10;99.90;;;;;;4987930;28;20081;-75
2022/11/19 01:08:45;;;;;;;105.15;44.42;;;-1.10;99.90;;;;;;4992066;28;20053;-76
2022/11/19 01:11:21;;;;;;;101.65;42.03;;;-1.00;99.90;;;;;;4970379;28;21453;-77
2022/11/19 01:13:48;;;;;;;107.07;46.97;;;-1.10;99.90;;;;;;4982043;28;20043;-76
2022/11/19 01:16:24;;;;;;;114.53;48.15;;;-1.00;99.90;;;;;;4993731;28;20037;-77
2022/11/19 01:18:51;;;;;;;98.75;43.08;;;-1.00;99.90;;;;;;4976260;28;20050;-77
2022/11/19 01:21:20;;;;;;;110.55;45.72;;;-1.00;99.90;;;;;;4947128;28;20039;-77
2022/11/19 01:23:47;;;;;;;111.72;44.88;;;-1.00;99.90;;;;;;4970823;28;20252;-76
2022/11/19 01:26:16;;;;;;;114.32;50.15;;;-1.00;99.90;;;;;;4970830;28;20042;-77
2022/11/19 01:28:44;;;;;;;123.22;50.10;;;-0.90;99.90;;;;;;4966219;28;20049;-78
2022/11/19 01:31:14;;;;;;;106.03;43.22;;;-1.00;99.90;;;;;;4952760;28;20144;-77
2022/11/19 01:33:41;;;;;;;102.50;43.25;;;-0.90;99.90;;;;;;4974250;28;20046;-77
2022/11/19 01:36:11;;;;;;;93.57;39.90;;;-1.00;99.90;;;;;;4960365;28;20081;-77
2022/11/19 01:38:38;;;;;;;95.80;41.92;;;-1.00;99.90;;;;;;4960301;28;20050;-77
2022/11/19 01:41:06;;;;;;;110.55;47.28;;;-1.00;99.90;;;;;;4989642;28;20046;-77
2022/11/19 01:43:57;;;;;;;116.00;47.58;;;-1.00;99.90;;;;;;4967019;28;20042;-77
2022/11/19 01:46:32;;;;;;;120.78;47.60;;;-1.00;99.90;;;;;;4971887;28;20046;-75
2022/11/19 01:49:15;;;;;;;95.15;38.70;;;-1.00;99.90;;;;;;4985169;28;20054;-76
2022/11/19 01:51:57;;;;;;;92.20;36.78;;;-1.00;99.90;;;;;;4968858;28;20475;-76
2022/11/19 01:54:28;;;;;;;112.95;46.83;;;-1.00;99.90;;;;;;4953914;28;20051;-76
2022/11/19 01:57:00;;;;;;;78.35;35.05;;;-1.00;99.90;;;;;;4991462;28;20528;-76
2022/11/19 01:59:28;;;;;;;94.63;39.67;;;-1.10;99.90;;;;;;4958220;28;20042;-75
2022/11/19 02:01:55;;;;;;;93.63;38.78;;;-1.00;99.90;;;;;;4972994;28;20038;-76
2022/11/19 02:04:24;;;;;;;88.85;37.83;;;-1.10;99.90;;;;;;4956474;28;20484;-75
2022/11/19 02:06:52;;;;;;;87.90;35.78;;;-1.10;99.90;;;;;;4969092;28;20586;-75
2022/11/19 02:09:19;;;;;;;98.50;44.20;;;-1.10;99.90;;;;;;4993173;28;20047;-75
2022/11/19 02:12:15;;;;;;;65.25;30.92;;;-1.10;99.90;;;;;;4993597;28;20125;-76
2022/11/19 02:15:05;;;;;;;93.30;40.88;;;-1.10;99.90;;;;;;4968938;28;20068;-76
2022/11/19 02:17:47;;;;;;;93.13;37.53;;;-1.10;99.90;;;;;;4987365;28;20043;-76
2022/11/19 02:20:31;;;;;;;95.32;39.80;;;-1.00;99.90;;;;;;4972874;28;20677;-76
2022/11/19 02:23:20;;;;;;;83.65;35.20;;;-1.10;99.90;;;;;;4975293;28;20056;-76
2022/11/19 02:26:12;;;;;;;98.70;41.13;;;-1.10;99.90;;;;;;4972433;28;20066;-77
2022/11/19 02:28:57;;;;;;;79.13;34.35;;;-1.10;99.90;;;;;;4980606;28;20042;-76
2022/11/19 02:31:30;;;;;;;90.07;39.63;;;-1.10;99.90;;;;;;4986230;28;20043;-76
2022/11/19 02:34:08;;;;;;;85.80;37.50;;;-1.10;99.90;;;;;;4973465;28;20049;-76
2022/11/19 02:36:56;;;;;;;71.53;33.70;;;-1.10;99.90;;;;;;4986303;28;20053;-76
2022/11/19 02:39:40;;;;;;;74.25;34.72;;;-1.20;99.90;;;;;;4951100;28;20058;-77
2022/11/19 02:42:12;;;;;;;65.07;33.92;;;-1.30;99.90;;;;;;4968872;28;20431;-75
2022/11/19 02:45:07;;;;;;;71.47;35.60;;;-1.30;99.90;;;;;;4975243;28;20068;-76
2022/11/19 02:47:38;;;;;;;71.35;36.55;;;-1.30;99.90;;;;;;4969878;28;20138;-76
2022/11/19 02:50:17;;;;;;;71.10;33.70;;;-1.40;99.90;;;;;;4969093;28;20499;-76
2022/11/19 02:52:45;;;;;;;65.00;33.70;;;-1.30;99.90;;;;;;4967214;28;20054;-77
2022/11/19 02:55:17;;;;;;;71.43;36.80;;;-1.40;99.90;;;;;;4988058;28;20418;-77
2022/11/19 02:58:02;;;;;;;63.03;34.38;;;-1.40;99.90;;;;;;4970710;28;20158;-76
2022/11/19 03:06:22;;;;;;;49.05;28.02;;;-1.50;99.90;;;;;;4971988;28;20074;-77
2022/11/19 03:08:49;;;;;;;62.28;30.08;;;-1.50;99.90;;;;;;4971261;28;20146;-78
2022/11/19 03:11:21;;;;;;;55.60;29.20;;;-1.60;99.90;;;;;;4992675;28;20060;-77
2022/11/19 03:16:41;;;;;;;;;;;-1.60;99.90;;;;;;4973903;28;20081;-76
2022/11/19 03:19:56;;;;;;;57.63;31.20;;;-1.60;99.90;;;;;;4956578;28;19922;-76
2022/11/19 03:22:39;;;;;;;51.22;30.10;;;-1.70;99.90;;;;;;4970343;28;20045;-77
2022/11/19 03:25:06;;;;;;;43.47;25.30;;;-1.70;99.90;;;;;;4959075;28;20045;-76
2022/11/19 03:27:41;;;;;;;60.17;33.50;;;-1.70;99.90;;;;;;4978805;28;20034;-76
2022/11/19 03:30:08;;;;;;;47.17;28.58;;;-1.70;99.90;;;;;;4974598;28;20048;-76
2022/11/19 03:32:58;;;;;;;54.25;32.83;;;-1.80;99.90;;;;;;4954585;28;20372;-76
2022/11/19 03:35:36;;;;;;;53.38;32.70;;;-1.80;99.90;;;;;;4933467;28;20626;-76
2022/11/19 03:38:07;;;;;;;42.63;27.17;;;-1.80;99.90;;;;;;4976592;28;20046;-78
2022/11/19 03:40:34;;;;;;;49.67;30.15;;;-1.80;99.90;;;;;;4960400;28;21086;-78
2022/11/19 03:43:04;;;;;;;49.55;30.10;;;-1.80;99.90;;;;;;4968863;28;20058;-77
2022/11/19 03:45:36;;;;;;;55.30;34.35;;;-1.80;99.90;;;;;;4970785;28;20662;-77
2022/11/19 03:48:04;;;;;;;47.45;30.13;;;-1.80;99.90;;;;;;4962176;28;20693;-77
2022/11/19 03:50:41;;;;;;;60.00;35.15;;;-1.80;99.90;;;;;;4969131;28;20050;-77
2022/11/19 03:53:08;;;;;;;57.92;33.88;;;-1.80;99.90;;;;;;4958095;28;20488;-76
2022/11/19 03:55:45;;;;;;;58.28;33.50;;;-1.80;99.90;;;;;;4965853;28;20137;-76
2022/11/19 03:58:12;;;;;;;48.00;31.48;;;-1.90;99.90;;;;;;4967704;28;20046;-77
2022/11/19 04:00:38;;;;;;;56.20;34.65;;;-1.90;99.90;;;;;;4969272;28;20045;-76
2022/11/19 04:03:05;;;;;;;49.08;30.65;;;-1.90;99.90;;;;;;4959540;28;20053;-76
2022/11/19 04:05:32;;;;;;;48.13;30.60;;;-1.90;99.90;;;;;;4956897;28;20045;-77
2022/11/19 04:07:58;;;;;;;55.15;33.20;;;-2.00;99.90;;;;;;4973559;28;20057;-75
2022/11/19 04:10:25;;;;;;;53.22;32.20;;;-2.00;99.90;;;;;;4963309;28;20051;-76
2022/11/19 04:12:52;;;;;;;48.88;28.83;;;-2.00;99.90;;;;;;4989618;28;20049;-75
2022/11/19 04:15:18;;;;;;;49.70;31.63;;;-2.00;99.90;;;;;;4969389;28;20039;-76
2022/11/19 04:17:45;;;;;;;58.55;35.30;;;-2.10;99.90;;;;;;4969101;28;20145;-77
2022/11/19 04:20:12;;;;;;;54.03;33.45;;;-2.10;99.90;;;;;;4987215;28;20062;-77
2022/11/19 04:22:38;;;;;;;55.08;34.55;;;-2.10;99.90;;;;;;4975476;28;20037;-76
2022/11/19 04:25:05;;;;;;;53.47;33.22;;;-2.20;99.90;;;;;;4973988;28;20042;-75
2022/11/19 04:27:32;;;;;;;46.42;30.90;;;-2.10;99.90;;;;;;4968577;28;20042;-76
2022/11/19 04:29:59;;;;;;;47.63;30.48;;;-2.20;99.90;;;;;;4969510;28;20416;-76
2022/11/19 04:32:26;;;;;;;51.20;32.50;;;-2.20;99.90;;;;;;4970872;28;20046;-76
2022/11/19 04:34:52;;;;;;;47.88;31.45;;;-2.20;99.90;;;;;;4971472;28;20042;-76
2022/11/19 04:37:19;;;;;;;48.55;32.22;;;-2.30;99.90;;;;;;4966409;28;20518;-76
2022/11/19 04:39:46;;;;;;;50.63;32.80;;;-2.30;99.90;;;;;;4976544;28;20139;-76
2022/11/19 04:42:12;;;;;;;49.35;31.25;;;-2.40;99.90;;;;;;4954615;28;20235;-76
2022/11/19 04:44:42;;;;;;;47.13;31.75;;;-2.40;99.90;;;;;;4962040;28;20129;-76
2022/11/19 04:47:09;;;;;;;51.75;32.97;;;-2.50;99.90;;;;;;4977126;28;20034;-76
2022/11/19 04:49:35;;;;;;;43.35;30.10;;;-2.50;99.90;;;;;;4958081;28;20046;-76
2022/11/19 04:52:02;;;;;;;44.92;30.33;;;-2.60;99.90;;;;;;4971670;28;20053;-76
2022/11/19 04:54:29;;;;;;;48.33;31.35;;;-2.50;99.90;;;;;;4973439;28;20042;-76
2022/11/19 04:56:55;;;;;;;44.78;31.42;;;-2.50;99.90;;;;;;4968426;28;20051;-76
2022/11/19 04:59:22;;;;;;;46.17;31.60;;;-2.50;99.90;;;;;;4965199;28;20049;-76
2022/11/19 05:01:49;;;;;;;45.40;31.38;;;-2.60;99.90;;;;;;4971618;28;20033;-76
2022/11/19 05:04:15;;;;;;;46.60;33.10;;;-2.60;99.90;;;;;;4969496;28;20496;-76
2022/11/19 05:06:42;;;;;;;51.55;34.33;;;-2.60;99.90;;;;;;4973360;28;20052;-76
2022/11/19 05:09:09;;;;;;;46.33;31.50;;;-2.70;99.90;;;;;;4988375;28;20667;-76
2022/11/19 05:11:35;;;;;;;49.15;31.02;;;-2.60;99.90;;;;;;4954659;28;20038;-76
2022/11/19 05:14:02;;;;;;;44.65;30.45;;;-2.70;99.90;;;;;;4993774;28;20061;-76
2022/11/19 05:16:29;;;;;;;46.15;30.50;;;-2.60;99.90;;;;;;4950451;28;20039;-77
2022/11/19 05:18:55;;;;;;;38.70;30.15;;;-2.60;99.90;;;;;;4976321;28;20050;-76
2022/11/19 05:21:22;;;;;;;46.00;30.33;;;-2.70;99.90;;;;;;4959058;28;20046;-78
2022/11/19 05:23:49;;;;;;;43.30;29.75;;;-2.70;99.90;;;;;;4994660;28;20081;-78
2022/11/19 05:26:15;;;;;;;39.42;30.83;;;-2.70;99.90;;;;;;4957771;28;20038;-77
2022/11/19 05:28:42;;;;;;;44.42;30.48;;;-2.80;99.90;;;;;;4994101;28;20034;-77
2022/11/19 05:31:09;;;;;;;38.47;26.92;;;-2.80;99.90;;;;;;4968841;28;20046;-77
2022/11/19 05:33:35;;;;;;;45.15;32.60;;;-2.80;99.90;;;;;;4968874;28;20052;-77
2022/11/19 05:36:03;;;;;;;44.72;31.58;;;-2.70;99.90;;;;;;4976772;28;20053;-77
2022/11/19 05:38:30;;;;;;;43.95;32.78;;;-2.70;99.90;;;;;;4985273;28;20682;-77
2022/11/19 05:40:56;;;;;;;40.83;30.83;;;-2.80;99.90;;;;;;4952254;28;20046;-77
2022/11/19 05:43:23;;;;;;;47.17;32.00;;;-2.80;99.90;;;;;;4974034;28;20058;-77
2022/11/19 05:45:50;;;;;;;40.97;29.98;;;-2.80;99.90;;;;;;4976971;28;20058;-77
2022/11/19 05:48:17;;;;;;;42.70;30.50;;;-2.90;99.90;;;;;;4970749;28;20043;-77
2022/11/19 05:50:43;;;;;;;41.03;28.20;;;-2.90;99.90;;;;;;4969597;28;20132;-77
2022/11/19 05:53:10;;;;;;;44.97;30.92;;;-2.80;99.90;;;;;;4958606;28;20046;-77
2022/11/19 05:55:37;;;;;;;39.35;29.17;;;-2.90;99.90;;;;;;4976195;28;20077;-77
2022/11/19 05:58:03;;;;;;;41.67;31.70;;;-2.90;99.90;;;;;;4956446;28;20050;-76
2022/11/19 06:00:30;;;;;;;37.13;30.33;;;-2.90;99.90;;;;;;4952714;28;21036;-77
2022/11/19 06:02:57;;;;;;;43.85;28.48;;;-2.90;99.90;;;;;;4971828;28;20468;-77
2022/11/19 06:05:23;;;;;;;41.22;30.63;;;-3.00;99.90;;;;;;4968637;28;21220;-76
2022/11/19 06:07:50;;;;;;;45.72;32.55;;;-3.00;99.90;;;;;;4978687;28;20037;-77
2022/11/19 06:10:17;;;;;;;37.17;30.98;;;-3.10;99.90;;;;;;4986697;28;20053;-78
2022/11/19 06:12:44;;;;;;;42.33;32.17;;;-3.10;99.90;;;;;;4962923;28;20078;-77
2022/11/19 06:15:12;;;;;;;40.97;30.60;;;-3.10;99.90;;;;;;4967618;28;20045;-77
2022/11/19 06:17:41;;;;;;;41.83;33.00;;;-3.10;99.90;;;;;;4988715;28;20044;-77
2022/11/19 06:20:09;;;;;;;31.60;26.98;;;-3.20;99.90;;;;;;4968127;28;20046;-77
2022/11/19 06:22:37;;;;;;;42.85;31.33;;;-3.20;99.90;;;;;;4992369;28;20116;-77
2022/11/19 06:25:04;;;;;;;46.13;31.20;;;-3.20;99.90;;;;;;4960666;28;20046;-77
2022/11/19 06:27:31;;;;;;;35.30;29.27;;;-3.20;99.90;;;;;;4993039;28;20480;-78
2022/11/19 06:29:58;;;;;;;41.35;32.13;;;-3.20;99.90;;;;;;4990485;28;20137;-78
2022/11/19 06:32:25;;;;;;;36.88;29.17;;;-3.20;99.90;;;;;;4967326;28;20057;-76
2022/11/19 06:34:51;;;;;;;36.08;29.40;;;-3.30;99.90;;;;;;4991847;28;20503;-77
2022/11/19 06:37:18;;;;;;;37.85;29.52;;;-3.30;99.90;;;;;;4977607;28;20039;-77
2022/11/19 06:39:45;;;;;;;42.15;33.28;;;-3.30;99.90;;;;;;4992266;28;20068;-77
2022/11/19 06:44:56;;;;;;;;;;;-3.40;99.90;;;;;;4975795;28;20050;-77
2022/11/19 06:47:23;;;;;;;42.38;29.88;;;-3.40;99.90;;;;;;4978221;28;19928;-77
2022/11/19 06:49:50;;;;;;;29.80;26.50;;;-3.40;99.90;;;;;;4979257;28;20464;-76
2022/11/19 06:52:16;;;;;;;32.35;29.02;;;-3.40;99.90;;;;;;4968689;28;20137;-76
2022/11/19 06:54:43;;;;;;;42.35;32.20;;;-3.40;99.90;;;;;;4967044;28;20037;-76
2022/11/19 06:57:10;;;;;;;39.45;30.55;;;-3.50;99.90;;;;;;4991984;28;20046;-76
2022/11/19 06:59:37;;;;;;;39.85;30.95;;;-3.50;99.90;;;;;;4973413;28;20145;-75
2022/11/19 07:02:05;;;;;;;42.42;29.48;;;-3.50;99.90;;;;;;4956786;28;20034;-76
2022/11/19 07:04:31;;;;;;;31.88;27.90;;;-3.50;99.90;;;;;;4975511;28;20039;-76
2022/11/19 07:06:58;;;;;;;35.05;27.45;;;-3.50;99.90;;;;;;4971418;28;20130;-76
2022/11/19 07:09:25;;;;;;;32.25;24.88;;;-3.50;99.90;;;;;;4961650;28;20043;-76
2022/11/19 07:11:51;;;;;;;38.65;29.13;;;-3.50;99.90;;;;;;4962905;28;20039;-76
2022/11/19 07:14:18;;;;;;;36.45;29.48;;;-3.40;99.90;;;;;;4976595;28;20137;-76
2022/11/19 07:16:45;;;;;;;32.47;25.45;;;-3.50;99.90;;;;;;4967787;28;20546;-76
2022/11/19 07:19:11;;;;;;;32.88;29.30;;;-3.50;99.90;;;;;;4971243;28;20068;-76
2022/11/19 07:21:38;;;;;;;34.75;30.10;;;-3.50;99.90;;;;;;4971822;28;20124;-76
2022/11/19 07:24:07;;;;;;;38.58;31.23;;;-3.60;99.90;;;;;;4995732;28;20065;-76
2022/11/19 07:26:35;;;;;;;38.00;29.88;;;-3.50;99.90;;;;;;4971120;28;20511;-76
2022/11/19 07:29:04;;;;;;;38.83;29.63;;;-3.50;99.90;;;;;;4973691;28;20088;-76
2022/11/19 07:31:32;;;;;;;35.17;28.80;;;-3.50;99.90;;;;;;4967691;28;20049;-75
2022/11/19 07:33:58;;;;;;;34.95;30.33;;;-3.50;99.90;;;;;;4970732;28;20045;-76
2022/11/19 07:36:25;;;;;;;36.22;31.50;;;-3.50;99.90;;;;;;4957438;28;20042;-75
2022/11/19 07:38:52;;;;;;;33.97;29.52;;;-3.50;99.90;;;;;;4991952;28;20504;-76
2022/11/19 07:44:04;;;;;;;26.42;24.08;;;-3.50;99.90;;;;;;4988518;28;20084;-75
2022/11/19 07:46:31;;;;;;;38.20;30.85;;;-3.40;99.90;;;;;;4954667;28;20307;-77
2022/11/19 07:48:58;;;;;;;43.72;32.20;;;-3.40;99.90;;;;;;4979743;28;20052;-78
2022/11/19 07:51:25;;;;;;;35.83;30.10;;;-3.40;99.90;;;;;;4970895;28;20042;-78
2022/11/19 07:53:53;;;;;;;36.30;28.90;;;-3.40;99.90;;;;;;4967913;28;20046;-77
2022/11/19 07:56:20;;;;;;;39.15;32.65;;;-3.30;99.90;;;;;;4965137;28;20112;-77
2022/11/19 07:58:47;;;;;;;36.47;32.58;;;-3.30;99.90;;;;;;4974359;28;20039;-77
2022/11/19 08:01:17;;;;;;;47.38;37.63;;;-3.30;99.90;;;;;;4968985;28;20053;-78
2022/11/19 08:03:45;;;;;;;42.10;34.72;;;-3.30;99.90;;;;;;4991804;28;20042;-79
2022/11/19 08:06:19;;;;;;;;;;;-3.20;99.90;;;;;;4952149;28;20535;-78
2022/11/19 08:08:46;;;;;;;37.72;30.67;;;-3.20;99.90;;;;;;4987210;28;19925;-78
2022/11/19 08:11:14;;;;;;;40.88;33.72;;;-3.20;99.90;;;;;;4972739;28;20037;-76
2022/11/19 08:13:41;;;;;;;41.47;33.05;;;-3.20;99.90;;;;;;4971069;28;20050;-77
2022/11/19 08:18:10;;;;;;;83.30;50.30;;;-3.10;99.90;;;;;;4969351;28;20561;-79
2022/11/19 08:19:02;;;;;;;37.00;31.90;;;-3.00;99.90;;;;;;4965526;28;20046;-78
2022/11/19 08:21:29;;;;;;;40.50;36.13;;;-3.00;99.90;;;;;;4965698;28;20496;-77
2022/11/19 08:23:56;;;;;;;40.22;33.13;;;-3.00;99.90;;;;;;4974241;28;20060;-78
2022/11/19 08:26:22;;;;;;;43.17;34.42;;;-3.00;99.90;;;;;;4954879;28;20123;-78
2022/11/19 08:28:49;;;;;;;43.65;33.90;;;-2.90;99.90;;;;;;4973214;28;20130;-77
2022/11/19 08:31:16;;;;;;;46.90;31.95;;;-2.90;99.90;;;;;;4971656;28;20046;-73
2022/11/19 08:33:43;;;;;;;35.22;31.80;;;-2.90;99.90;;;;;;4964854;28;20050;-77
2022/11/19 08:36:09;;;;;;;40.67;35.13;;;-2.80;99.90;;;;;;4990638;28;20068;-74
2022/11/19 08:38:36;;;;;;;35.22;31.55;;;-2.80;99.90;;;;;;4960022;28;20133;-75
2022/11/19 08:43:50;;;;;;;35.58;32.53;;;-2.60;99.90;;;;;;4972640;28;20045;-76
2022/11/19 08:46:16;;;;;;;31.58;29.08;;;-2.50;99.90;;;;;;4966762;28;20480;-74
2022/11/19 08:48:43;;;;;;;35.95;32.67;;;-2.50;99.90;;;;;;4962607;28;20061;-77
2022/11/19 08:51:10;;;;;;;35.08;32.08;;;-2.40;99.90;;;;;;4963876;28;20041;-74
2022/11/19 08:53:36;;;;;;;35.35;32.10;;;-2.40;99.90;;;;;;4952932;28;20053;-74
2022/11/19 08:56:04;;;;;;;36.67;33.53;;;-2.20;99.90;;;;;;4961378;28;20049;-76
2022/11/19 08:58:31;;;;;;;35.15;32.42;;;-2.10;99.90;;;;;;4957542;28;20085;-77
2022/11/19 09:00:58;;;;;;;39.05;35.78;;;-1.90;99.90;;;;;;4975705;28;20575;-76
2022/11/19 09:03:25;;;;;;;35.67;32.47;;;-1.90;99.90;;;;;;4982830;28;20085;-75
2022/11/19 09:05:58;;;;;;;37.10;34.10;;;-1.80;99.90;;;;;;4964974;28;20058;-76
2022/11/19 09:08:25;;;;;;;33.97;31.10;;;-2.00;99.90;;;;;;4978576;28;20041;-76
2022/11/19 09:10:52;;;;;;;32.78;30.20;;;-1.90;99.90;;;;;;4975160;28;20042;-76
2022/11/19 09:13:20;;;;;;;34.92;32.05;;;-1.80;99.90;;;;;;4969095;28;20172;-76
2022/11/19 09:15:48;;;;;;;34.90;32.03;;;-1.80;99.90;;;;;;4972911;28;20149;-76
2022/11/19 09:18:15;;;;;;;32.45;29.80;;;-1.60;99.90;;;;;;4972786;28;20042;-76
2022/11/19 09:20:41;;;;;;;35.28;32.35;;;-1.70;99.90;;;;;;4962070;28;20060;-76
2022/11/19 09:23:08;;;;;;;36.72;33.53;;;-1.60;99.90;;;;;;4967746;28;20404;-77
2022/11/19 09:25:35;;;;;;;35.75;32.60;;;-1.60;99.90;;;;;;4990436;28;20052;-75
2022/11/19 09:28:04;;;;;;;34.85;31.67;;;-1.70;99.90;;;;;;4977521;28;20169;-76
2022/11/19 09:30:31;;;;;;;52.55;43.00;;;-1.70;99.90;;;;;;4965849;28;20599;-76
2022/11/19 09:33:00;;;;;;;42.60;38.00;;;-1.50;99.90;;;;;;4962529;28;20064;-76
2022/11/19 09:35:27;;;;;;;33.97;30.70;;;-1.40;99.90;;;;;;4984168;28;20050;-75
2022/11/19 09:37:54;;;;;;;38.20;35.15;;;-1.40;99.90;;;;;;4970003;28;20042;-77
2022/11/19 09:40:22;;;;;;;36.60;33.83;;;-1.30;99.90;;;;;;4974719;28;20044;-77
2022/11/19 09:43:36;;;;;;;37.17;34.35;;;-1.30;99.90;;;;;;4974217;28;20096;-77
2022/11/19 09:46:08;;;;;;;37.90;34.90;;;-1.30;99.90;;;;;;4959849;28;20054;-77
2022/11/19 09:48:38;;;;;;;37.92;35.03;;;-1.40;99.90;;;;;;4971850;28;20065;-75
2022/11/19 09:51:14;;;;;;;35.45;32.58;;;-1.20;99.90;;;;;;4979640;28;20141;-77
2022/11/19 09:53:44;;;;;;;34.60;31.98;;;-1.10;99.90;;;;;;4967046;28;20039;-75
2022/11/19 09:56:16;;;;;;;34.83;32.03;;;-1.10;99.90;;;;;;4952289;28;20095;-76
2022/11/19 09:58:44;;;;;;;34.72;31.85;;;-0.90;99.90;;;;;;4984050;28;20046;-75
2022/11/19 10:01:16;;;;;;;36.03;32.90;;;-0.90;99.90;;;;;;4967530;28;20061;-76
2022/11/19 10:03:49;;;;;;;35.03;32.28;;;-0.50;99.90;;;;;;4990338;28;20448;-76
2022/11/19 10:06:29;;;;;;;44.08;39.50;;;-0.50;99.90;;;;;;4955862;28;20046;-75
2022/11/19 10:09:07;;;;;;;43.22;38.83;;;-0.40;99.90;;;;;;4947531;28;20054;-76
2022/11/19 10:11:53;;;;;;;32.33;30.02;;;-0.80;99.90;;;;;;4952473;28;20060;-75
2022/11/19 10:14:38;;;;;;;36.80;33.85;;;-1.00;99.90;;;;;;4987238;28;20515;-76
2022/11/19 10:17:16;;;;;;;35.17;32.40;;;-0.90;99.90;;;;;;4986213;28;20041;-75
2022/11/19 10:20:02;;;;;;;34.25;31.50;;;-0.70;99.90;;;;;;4981891;28;20496;-75
2022/11/19 10:22:41;;;;;;;36.78;33.78;;;-0.90;99.90;;;;;;4972517;28;20065;-76
2022/11/19 10:25:20;;;;;;;35.10;32.45;;;-0.80;99.90;;;;;;4972694;28;20038;-75
2022/11/19 10:28:21;;;;;;;34.75;32.13;;;-0.90;99.90;;;;;;4991769;28;20045;-77
2022/11/19 10:30:54;;;;;;;37.15;33.95;;;-0.90;99.90;;;;;;4952093;28;20042;-77
2022/11/19 10:33:53;;;;;;;41.03;36.97;;;-0.50;99.90;;;;;;4989152;28;20050;-76
2022/11/19 10:36:35;;;;;;;35.38;32.08;;;-0.30;99.90;;;;;;4962395;28;20035;-76
2022/11/19 10:39:13;;;;;;;40.53;36.65;;;-0.30;99.90;;;;;;4977862;28;20074;-75
2022/11/19 10:41:49;;;;;;;37.50;33.65;;;-0.40;99.90;;;;;;4956730;28;20456;-75
2022/11/19 10:44:38;;;;;;;46.22;41.22;;;-0.30;99.90;;;;;;4970770;28;20439;-76
2022/11/19 10:47:19;;;;;;;42.35;38.15;;;-0.60;99.90;;;;;;4976049;28;20426;-76
2022/11/19 10:49:51;;;;;;;38.03;35.15;;;-0.50;99.90;;;;;;4988094;28;20046;-75
2022/11/19 10:52:38;;;;;;;38.13;35.15;;;-0.60;99.90;;;;;;4965802;28;20430;-76
2022/11/19 10:55:33;;;;;;;37.13;34.33;;;-0.30;99.90;;;;;;4984577;28;20472;-76
2022/11/19 10:58:09;;;;;;;38.03;35.05;;;-0.40;99.90;;;;;;4958209;28;20456;-76
2022/11/19 11:00:38;;;;;;;36.95;34.13;;;-0.30;99.90;;;;;;4969630;28;20046;-76
2022/11/19 11:03:46;;;;;;;37.83;34.92;;;-0.10;99.90;;;;;;4954404;28;20064;-76
2022/11/19 11:06:13;;;;;;;37.55;34.78;;;0.20;99.90;;;;;;4885152;29;20139;-76
2022/11/19 11:08:51;;;;;;;36.72;33.90;;;0.30;99.90;;;;;;4944168;28;20511;-77
2022/11/19 11:14:50;;;;;;;37.42;34.97;;;0.30;99.90;;;;;;4984372;28;20060;-76
2022/11/19 11:16:59;;;;;;;36.53;33.95;;;0.40;99.90;;;;;;4973303;28;20416;-76
2022/11/19 11:19:26;;;;;;;38.08;35.13;;;0.20;99.90;;;;;;4968349;28;20089;-77
2022/11/19 11:21:54;;;;;;;35.15;32.53;;;0.30;99.90;;;;;;4968402;28;20040;-76
2022/11/19 11:24:29;;;;;;;34.58;31.95;;;0.40;99.90;;;;;;4949188;28;20043;-77
2022/11/19 11:27:15;;;;;;;;;;;0.50;99.90;;;;;;4982573;28;20133;-77
2022/11/19 11:29:43;;;;;;;34.95;32.28;;;0.50;99.90;;;;;;4981242;28;20123;-76
2022/11/19 11:32:36;;;;;;;34.60;32.30;;;0.30;99.90;;;;;;4970615;28;20145;-76
2022/11/19 11:35:04;;;;;;;35.72;33.08;;;0.30;99.90;;;;;;4961811;28;20050;-77
2022/11/19 11:37:36;;;;;;;35.67;32.72;;;0.40;99.90;;;;;;4967892;28;20137;-77
2022/11/19 11:40:05;;;;;;;37.95;35.15;;;0.60;99.90;;;;;;4976805;28;20076;-76
2022/11/19 11:42:31;;;;;;;35.97;33.40;;;0.20;99.90;;;;;;4965865;28;20041;-77
2022/11/19 11:45:00;;;;;;;35.47;33.08;;;0.20;99.90;;;;;;4971829;28;20527;-77
2022/11/19 11:47:30;;;;;;;35.22;32.72;;;0.00;99.90;;;;;;4978489;28;20119;-76
2022/11/19 11:50:19;;;;;;;36.20;33.63;;;-0.20;99.90;;;;;;4969815;28;20343;-77
2022/11/19 11:52:50;;;;;;;31.63;29.80;;;-0.20;99.90;;;;;;4971317;28;20046;-76
2022/11/19 11:55:22;;;;;;;35.95;33.45;;;0.00;99.90;;;;;;4966388;28;20046;-76
2022/11/19 11:57:57;;;;;;;35.20;32.60;;;-0.10;99.90;;;;;;4983225;28;20408;-76
2022/11/19 12:00:37;;;;;;;36.50;33.90;;;0.00;99.90;;;;;;4972666;28;20056;-77
2022/11/19 12:03:06;;;;;;;35.83;33.42;;;0.20;99.90;;;;;;4969962;28;20058;-77
2022/11/19 12:05:45;;;;;;;35.00;32.65;;;0.50;99.90;;;;;;4985003;28;20268;-77
2022/11/19 12:08:36;;;;;;;35.63;32.78;;;0.60;99.90;;;;;;4982685;28;20050;-77
2022/11/19 12:11:16;;;;;;;35.97;33.80;;;0.50;99.90;;;;;;4958260;28;20150;-78
2022/11/19 12:13:59;;;;;;;37.85;35.05;;;0.50;99.90;;;;;;4944969;28;20043;-78
2022/11/19 12:16:48;;;;;;;38.35;35.80;;;0.90;99.90;;;;;;4967168;28;20042;-77
2022/11/19 12:19:27;;;;;;;35.50;33.28;;;1.10;99.90;;;;;;4943160;28;20057;-77
2022/11/19 12:22:15;;;;;;;35.78;33.38;;;0.70;99.90;;;;;;4974442;28;20046;-77
2022/11/19 12:24:59;;;;;;;31.58;29.58;;;0.40;99.90;;;;;;4959729;28;20042;-77
2022/11/19 12:27:45;;;;;;;36.42;33.92;;;0.40;99.90;;;;;;4951124;28;20042;-77
2022/11/19 12:30:28;;;;;;;37.25;34.60;;;0.20;99.90;;;;;;4978819;28;20554;-76
2022/11/19 12:33:10;;;;;;;36.13;33.42;;;-0.10;99.90;;;;;;4972334;28;20049;-75
2022/11/19 12:36:03;;;;;;;34.75;32.40;;;0.10;99.90;;;;;;4957904;28;20050;-76
2022/11/19 12:38:38;;;;;;;37.60;35.05;;;-0.20;99.90;;;;;;4948601;28;20046;-77
2022/11/19 12:41:36;;;;;;;36.35;33.78;;;-0.20;99.90;;;;;;4963449;28;20049;-76
2022/11/19 12:44:28;;;;;;;39.03;36.58;;;0.10;99.90;;;;;;4962472;28;20230;-76
2022/11/19 12:47:25;;;;;;;42.50;39.67;;;-0.10;99.90;;;;;;4966381;28;20046;-76
2022/11/19 12:50:21;;;;;;;50.30;46.17;;;-0.20;99.90;;;;;;4988843;28;20046;-76
2022/11/19 12:53:19;;;;;;;42.63;39.70;;;-0.30;99.90;;;;;;4971508;28;20639;-76
2022/11/19 12:56:25;;;;;;;42.78;38.75;;;-0.20;99.90;;;;;;4960998;28;20042;-77
2022/11/19 12:59:11;;;;;;;41.85;38.55;;;-0.20;99.90;;;;;;4961946;28;20076;-77
2022/11/19 13:01:43;;;;;;;41.42;38.25;;;0.00;99.90;;;;;;4963427;28;20046;-77
2022/11/19 13:04:28;;;;;;;37.17;34.65;;;0.00;99.90;;;;;;4970571;28;20393;-79
2022/11/19 13:07:01;;;;;;;30.35;28.08;;;-0.10;99.90;;;;;;4987325;28;20038;-77
2022/11/19 13:09:43;;;;;;;31.23;28.38;;;-0.20;99.90;;;;;;4963510;28;20690;-76
2022/11/19 13:12:16;;;;;;;27.33;25.20;;;-0.30;99.90;;;;;;4960859;28;20058;-76
2022/11/19 13:14:49;;;;;;;31.98;29.35;;;-0.30;99.90;;;;;;4971941;28;20609;-77